Time;durP1;ratioP1;P1;durP2;ratioP2;P2;SDS_P1;SDS_P2;PMS_P1;PMS_P2;Temp;Humidity;BMP_temperature;BMP_pressure;BME280_temperature;BME280_humidity;BME280_pressure;Samples;Min_cycle;Max_cycle;Signal;HPM_P1;HPM_P2
2022/11/13 00:00:15;;;;;;;20.13;10.73;;;;;;;6.85;100.00;100939.63;12202919;19;20031;-81
2022/11/13 00:04:35;;;;;;;17.67;10.18;;;;;;;6.76;100.00;100926.28;12217503;19;20028;-82
2022/11/13 00:08:55;;;;;;;17.52;9.85;;;;;;;6.70;100.00;100922.44;12200655;19;20047;-81
2022/11/13 00:13:16;;;;;;;21.90;10.07;;;;;;;6.61;100.00;100919.00;12250720;19;20027;-81
2022/11/13 00:17:36;;;;;;;16.40;9.93;;;;;;;6.53;100.00;100915.53;12227540;19;20018;-81
2022/11/13 00:21:58;;;;;;;19.77;9.40;;;;;;;6.45;100.00;100912.91;12219891;19;20424;-81
2022/11/13 00:26:21;;;;;;;14.57;8.10;;;;;;;6.37;100.00;100913.91;12224276;19;20080;-82
2022/11/13 00:30:41;;;;;;;18.27;8.80;;;;;;;6.30;100.00;100910.25;12195270;19;20035;-81
2022/11/13 00:35:01;;;;;;;18.92;9.88;;;;;;;6.25;100.00;100910.00;12215534;19;20022;-81
2022/11/13 00:39:21;;;;;;;17.85;9.30;;;;;;;6.18;100.00;100915.38;12192851;19;20035;-81
2022/11/13 00:43:42;;;;;;;22.00;10.32;;;;;;;6.11;100.00;100904.38;12215683;19;20017;-81
2022/11/13 00:48:02;;;;;;;14.82;9.55;;;;;;;6.08;100.00;100895.72;12193306;19;20032;-81
2022/11/13 00:52:22;;;;;;;17.95;9.60;;;;;;;6.11;100.00;100898.06;12216025;19;20018;-82
2022/11/13 00:56:42;;;;;;;19.63;9.90;;;;;;;6.17;100.00;100889.06;12195592;19;20088;-80
2022/11/13 01:01:06;;;;;;;20.13;10.48;;;;;;;6.24;100.00;100884.50;12216234;19;20025;-80
2022/11/13 01:05:26;;;;;;;17.90;9.27;;;;;;;6.30;100.00;100886.44;12213687;19;20029;-80
2022/11/13 01:09:50;;;;;;;18.15;9.65;;;;;;;6.34;100.00;100884.19;12190481;19;20023;-81
2022/11/13 01:14:10;;;;;;;16.98;9.82;;;;;;;6.37;100.00;100883.81;12212483;19;20790;-81
2022/11/13 01:18:30;;;;;;;19.95;10.73;;;;;;;6.38;100.00;100882.75;12191254;19;20025;-81
2022/11/13 01:22:50;;;;;;;22.20;10.50;;;;;;;6.35;100.00;100889.47;12202740;19;20018;-81
2022/11/13 01:27:12;;;;;;;18.15;10.05;;;;;;;6.29;100.00;100883.94;12189068;19;20371;-80
2022/11/13 01:31:32;;;;;;;18.92;10.43;;;;;;;6.23;100.00;100882.81;12212174;19;21106;-80
2022/11/13 01:35:52;;;;;;;20.33;10.50;;;;;;;6.23;100.00;100879.25;12189723;19;20019;-80
2022/11/13 01:40:13;;;;;;;18.05;9.70;;;;;;;6.27;100.00;100878.63;12211985;19;20417;-80
2022/11/13 01:44:58;;;;;;;17.52;9.52;;;;;;;6.34;100.00;100886.94;12207777;19;20031;-81
2022/11/13 01:49:31;;;;;;;19.50;10.02;;;;;;;6.39;100.00;100888.03;12210749;19;20030;-80
2022/11/13 01:53:51;;;;;;;17.15;9.88;;;;;;;6.44;100.00;100873.75;12181716;19;20114;-80
2022/11/13 01:58:12;;;;;;;18.88;10.05;;;;;;;6.49;100.00;100875.91;12207984;19;20058;-80
2022/11/13 02:02:32;;;;;;;20.65;11.00;;;;;;;6.53;100.00;100872.56;12209241;19;20046;-80
2022/11/13 02:06:56;;;;;;;18.58;9.93;;;;;;;6.56;100.00;100872.16;12187112;19;20035;-80
2022/11/13 02:11:17;;;;;;;20.55;10.60;;;;;;;6.55;100.00;100865.00;12207230;19;20059;-81
2022/11/13 02:15:38;;;;;;;20.50;11.63;;;;;;;6.58;100.00;100859.13;12187095;19;20069;-80
2022/11/13 02:20:01;;;;;;;23.25;11.38;;;;;;;6.65;100.00;100853.69;12208798;19;20013;-81
2022/11/13 02:24:29;;;;;;;22.77;10.73;;;;;;;6.69;100.00;100848.66;12183613;19;20017;-80
2022/11/13 02:28:51;;;;;;;21.52;11.10;;;;;;;6.73;100.00;100837.13;12201928;19;20030;-81
2022/11/13 02:33:32;;;;;;;24.73;11.25;;;;;;;6.76;100.00;100834.00;12185049;19;20078;-81
2022/11/13 02:37:55;;;;;;;26.58;12.00;;;;;;;6.82;100.00;100830.44;12210353;19;20017;-80
2022/11/13 02:42:15;;;;;;;28.37;12.20;;;;;;;6.85;100.00;100834.69;12184431;19;20510;-81
2022/11/13 02:46:35;;;;;;;25.17;11.90;;;;;;;6.84;100.00;100825.63;12209147;19;20281;-81
2022/11/13 02:50:55;;;;;;;23.23;11.63;;;;;;;6.87;100.00;100831.72;12186276;19;20029;-80
2022/11/13 02:55:15;;;;;;;21.42;11.02;;;;;;;6.81;100.00;100822.41;12205895;19;20015;-80
2022/11/13 02:59:35;;;;;;;30.80;12.27;;;;;;;6.74;100.00;100818.78;12184904;19;20031;-81
2022/11/13 03:03:55;;;;;;;26.35;12.52;;;;;;;6.70;100.00;100810.13;12203566;19;20013;-81
2022/11/13 03:08:18;;;;;;;25.38;11.75;;;;;;;6.70;100.00;100812.88;12203501;19;20077;-80
2022/11/13 03:12:39;;;;;;;22.40;11.60;;;;;;;6.68;100.00;100812.22;12179378;19;20040;-80
2022/11/13 03:16:59;;;;;;;26.27;11.35;;;;;;;6.65;100.00;100811.78;12202074;19;20024;-80
2022/11/13 03:21:20;;;;;;;28.42;12.70;;;;;;;6.59;100.00;100808.78;12181935;19;20013;-80
2022/11/13 03:25:39;;;;;;;43.63;14.27;;;;;;;6.55;100.00;100810.25;12208250;19;20014;-80
2022/11/13 03:29:59;;;;;;;26.15;11.73;;;;;;;6.52;100.00;100804.31;12188401;19;20090;-80
2022/11/13 03:34:19;;;;;;;36.42;12.60;;;;;;;6.51;100.00;100799.88;12210575;19;20027;-80
2022/11/13 03:38:39;;;;;;;22.00;12.48;;;;;;;6.44;100.00;100801.72;12197883;19;20043;-81
2022/11/13 03:42:59;;;;;;;24.90;11.30;;;;;;;6.41;100.00;100804.84;12217943;19;20039;-80
2022/11/13 03:47:20;;;;;;;25.27;12.35;;;;;;;6.32;100.00;100799.53;12222235;19;20357;-80
2022/11/13 03:51:40;;;;;;;18.40;10.18;;;;;;;6.17;100.00;100801.50;12198006;19;20039;-80
2022/11/13 03:56:00;;;;;;;21.17;10.95;;;;;;;6.07;100.00;100803.72;12223687;19;20009;-79
2022/11/13 04:00:20;;;;;;;18.35;9.82;;;;;;;6.03;100.00;100789.56;12200269;19;20384;-81
2022/11/13 04:04:40;;;;;;;19.65;10.15;;;;;;;5.97;100.00;100795.81;12222250;19;20039;-80
2022/11/13 04:09:00;;;;;;;17.77;10.15;;;;;;;5.88;100.00;100799.72;12197065;19;20487;-81
2022/11/13 04:13:21;;;;;;;19.02;10.18;;;;;;;5.76;100.00;100788.44;12214091;19;20035;-79
2022/11/13 04:17:41;;;;;;;18.70;9.55;;;;;;;5.66;100.00;100780.56;12195726;19;20027;-80
2022/11/13 04:22:02;;;;;;;18.75;10.20;;;;;;;5.57;100.00;100773.53;12218570;19;20031;-81
2022/11/13 04:26:23;;;;;;;17.85;9.38;;;;;;;5.51;100.00;100768.81;12220375;19;20031;-81
2022/11/13 04:30:43;;;;;;;20.23;9.77;;;;;;;5.42;100.00;100750.84;12197866;19;20019;-81
2022/11/13 04:35:04;;;;;;;21.40;10.10;;;;;;;5.32;100.00;100753.88;12223775;19;20483;-81
2022/11/13 04:39:26;;;;;;;17.15;10.43;;;;;;;5.21;100.00;100747.03;12198374;19;20032;-80
2022/11/13 04:43:46;;;;;;;19.65;10.10;;;;;;;5.16;100.00;100743.19;12221196;19;20011;-80
2022/11/13 04:48:06;;;;;;;19.50;9.43;;;;;;;5.11;100.00;100738.28;12196533;19;20026;-80
2022/11/13 04:52:27;;;;;;;19.23;9.93;;;;;;;5.08;100.00;100741.41;12216163;19;20503;-80
2022/11/13 04:56:47;;;;;;;17.13;9.20;;;;;;;5.05;100.00;100730.00;12197780;19;20031;-81
2022/11/13 05:01:08;;;;;;;19.08;9.60;;;;;;;4.99;100.00;100723.44;12220608;19;20031;-80
2022/11/13 05:05:28;;;;;;;17.90;9.30;;;;;;;4.94;100.00;100724.00;12221866;19;20060;-82
2022/11/13 05:09:48;;;;;;;18.73;9.35;;;;;;;4.89;100.00;100729.19;12219885;19;20077;-82
2022/11/13 05:14:11;;;;;;;22.27;9.93;;;;;;;4.84;100.00;100728.06;12263086;19;20017;-82
2022/11/13 05:18:32;;;;;;;17.35;7.90;;;;;;;4.79;100.00;100721.31;12245164;19;20010;-80
2022/11/13 05:22:52;;;;;;;19.00;9.48;;;;;;;4.73;100.00;100722.06;12247305;19;20080;-81
2022/11/13 05:27:12;;;;;;;16.75;8.82;;;;;;;4.66;100.00;100704.72;12210242;19;20023;-81
2022/11/13 05:31:36;;;;;;;16.98;9.30;;;;;;;4.62;100.00;100710.78;12228131;19;20016;-81
2022/11/13 05:36:08;;;;;;;18.75;8.68;;;;;;;4.57;100.00;100698.50;12206788;19;20032;-82
2022/11/13 05:40:29;;;;;;;17.10;9.20;;;;;;;4.54;100.00;100701.63;12225506;19;20048;-82
2022/11/13 05:44:49;;;;;;;17.88;8.02;;;;;;;4.48;100.00;100699.66;12205017;19;20027;-82
2022/11/13 05:49:09;;;;;;;16.98;8.73;;;;;;;4.42;100.00;100689.50;12221676;19;20035;-82
2022/11/13 05:53:30;;;;;;;16.65;7.50;;;;;;;4.37;100.00;100689.19;12220317;19;20017;-82
2022/11/13 05:57:50;;;;;;;17.70;9.25;;;;;;;4.30;100.00;100688.28;12205911;19;20016;-81
2022/11/13 06:02:10;;;;;;;16.92;8.82;;;;;;;4.25;100.00;100685.25;12229141;19;20468;-81
2022/11/13 06:06:31;;;;;;;16.13;7.80;;;;;;;4.20;100.00;100674.06;12200139;19;20510;-80
2022/11/13 06:10:52;;;;;;;15.52;7.68;;;;;;;4.17;100.00;100671.72;12217771;19;20432;-80
2022/11/13 06:15:12;;;;;;;18.58;8.60;;;;;;;4.16;100.00;100667.28;12198234;19;20023;-81
2022/11/13 06:19:32;;;;;;;15.43;8.20;;;;;;;4.15;100.00;100671.88;12220897;19;20031;-81
2022/11/13 06:23:52;;;;;;;14.27;7.90;;;;;;;4.14;100.00;100661.19;12193717;19;20022;-81
2022/11/13 06:28:13;;;;;;;17.50;7.90;;;;;;;4.09;100.00;100659.84;12217783;19;20020;-80
2022/11/13 06:32:38;;;;;;;16.70;8.00;;;;;;;4.05;100.00;100657.69;12214312;19;20027;-81
2022/11/13 06:36:58;;;;;;;14.88;7.82;;;;;;;4.05;100.00;100660.41;12193772;19;20094;-80
2022/11/13 06:41:23;;;;;;;15.15;7.35;;;;;;;4.04;100.00;100656.81;12214739;19;20039;-80
2022/11/13 06:45:43;;;;;;;15.35;8.65;;;;;;;4.02;100.00;100652.63;12193827;19;20019;-80
2022/11/13 06:50:05;;;;;;;15.00;8.30;;;;;;;4.01;100.00;100657.19;12216321;19;20082;-81
2022/11/13 06:54:25;;;;;;;15.10;7.50;;;;;;;3.99;100.00;100642.06;12190539;19;20035;-81
2022/11/13 06:58:46;;;;;;;14.60;7.47;;;;;;;3.96;100.00;100646.03;12211789;19;20073;-80
2022/11/13 07:03:15;;;;;;;14.48;8.10;;;;;;;3.95;100.00;100641.56;12193702;19;20025;-81
2022/11/13 07:07:35;;;;;;;22.02;9.20;;;;;;;3.99;100.00;100640.19;12225731;19;20017;-80
2022/11/13 07:11:55;;;;;;;27.85;12.25;;;;;;;4.02;100.00;100645.28;12200716;19;20035;-81
2022/11/13 07:16:16;;;;;;;27.15;13.77;;;;;;;4.04;100.00;100643.19;12228051;19;20387;-80
2022/11/13 07:20:37;;;;;;;19.90;9.07;;;;;;;4.10;100.00;100641.59;12227895;19;20503;-81
2022/11/13 07:24:58;;;;;;;58.92;27.60;;;;;;;4.16;100.00;100634.53;12202130;19;20021;-81
2022/11/13 07:29:18;;;;;;;31.25;17.05;;;;;;;4.21;100.00;100622.03;12224039;19;20701;-81
2022/11/13 07:33:38;;;;;;;23.98;13.40;;;;;;;4.27;100.00;100613.09;12199368;19;20380;-81
2022/11/13 07:37:58;;;;;;;24.38;14.70;;;;;;;4.35;100.00;100617.63;12226302;19;20029;-81
2022/11/13 07:42:18;;;;;;;17.52;10.38;;;;;;;4.44;100.00;100618.38;12197399;19;20107;-80
2022/11/13 07:46:38;;;;;;;21.88;12.52;;;;;;;4.49;100.00;100616.75;12224349;19;20154;-80
2022/11/13 07:51:00;;;;;;;17.38;9.95;;;;;;;4.56;100.00;100616.84;12202150;19;20132;-80
2022/11/13 07:55:20;;;;;;;16.30;8.65;;;;;;;4.64;100.00;100613.13;12219328;19;20027;-80
2022/11/13 07:59:40;;;;;;;15.23;8.73;;;;;;;4.71;100.00;100616.81;12221208;19;20039;-81
2022/11/13 08:04:00;;;;;;;18.23;10.00;;;;;;;4.79;100.00;100617.53;12228794;19;20490;-81
2022/11/13 08:08:21;;;;;;;17.25;9.10;;;;;;;4.89;100.00;100617.22;12222534;19;20513;-80
2022/11/13 08:12:41;;;;;;;18.20;8.82;;;;;;;5.02;100.00;100611.03;12196841;19;20009;-81
2022/11/13 08:17:02;;;;;;;17.52;10.35;;;;;;;5.18;100.00;100605.34;12226607;19;20032;-81
2022/11/13 08:21:22;;;;;;;16.08;9.38;;;;;;;5.34;100.00;100604.22;12199129;19;20013;-80
2022/11/13 08:25:43;;;;;;;16.42;9.15;;;;;;;5.52;100.00;100608.38;12225845;19;20035;-82
2022/11/13 08:30:03;;;;;;;16.08;9.40;;;;;;;5.67;100.00;100609.97;12199369;19;20008;-81
2022/11/13 08:34:24;;;;;;;17.10;10.77;;;;;;;5.87;100.00;100612.84;12202825;19;20115;-81
2022/11/13 08:38:46;;;;;;;17.40;9.77;;;;;;;6.03;100.00;100598.03;12190623;19;20017;-79
2022/11/13 08:43:06;;;;;;;18.63;9.77;;;;;;;6.20;100.00;100609.53;12215381;19;20031;-80
2022/11/13 08:47:28;;;;;;;17.17;8.98;;;;;;;6.38;100.00;100596.13;12216864;19;20524;-79
2022/11/13 08:51:49;;;;;;;17.38;10.07;;;;;;;6.62;100.00;100596.66;12185811;19;20442;-79
2022/11/13 08:56:09;;;;;;;17.35;9.88;;;;;;;6.81;100.00;100593.16;12218947;19;20395;-79
2022/11/13 09:00:31;;;;;;;16.38;10.15;;;;;;;7.01;100.00;100586.88;12196258;19;20757;-80
2022/11/13 09:04:51;;;;;;;14.85;9.90;;;;;;;7.23;100.00;100577.44;12209261;19;20387;-80
2022/11/13 09:09:11;;;;;;;16.38;9.38;;;;;;;7.47;100.00;100572.41;12193623;19;20028;-80
2022/11/13 09:13:35;;;;;;;18.08;9.90;;;;;;;7.63;100.00;100566.47;12212805;19;20487;-80
2022/11/13 09:18:03;;;;;;;15.07;8.52;;;;;;;7.81;100.00;100549.34;12193645;19;20025;-80
2022/11/13 09:22:23;;;;;;;8.07;5.25;;;;;;;8.05;100.00;100557.97;12207872;19;20046;-80
2022/11/13 09:26:43;;;;;;;8.82;5.20;;;;;;;8.33;100.00;100549.41;12188128;19;20039;-80
2022/11/13 09:31:05;;;;;;;8.02;5.20;;;;;;;8.59;100.00;100553.97;12211566;19;20039;-79
2022/11/13 09:35:35;;;;;;;8.23;5.20;;;;;;;8.87;100.00;100545.38;12210898;19;20612;-80
2022/11/13 09:39:56;;;;;;;7.47;4.10;;;;;;;9.13;100.00;100534.22;12173940;19;20038;-80
2022/11/13 09:44:27;;;;;;;9.15;4.50;;;;;;;9.36;100.00;100532.75;12192155;19;20020;-81
2022/11/13 09:48:55;;;;;;;6.32;3.88;;;;;;;9.58;100.00;100528.56;12186972;19;20025;-80
2022/11/13 09:53:15;;;;;;;5.47;2.90;;;;;;;9.80;100.00;100531.72;12205667;19;20036;-80
2022/11/13 09:57:38;;;;;;;5.93;3.25;;;;;;;10.03;100.00;100530.22;12188731;19;20081;-80
2022/11/13 10:02:20;;;;;;;4.90;3.25;;;;;;;10.25;100.00;100525.91;12208065;19;20035;-81
2022/11/13 10:07:04;;;;;;;4.97;3.63;;;;;;;10.43;100.00;100532.53;12198281;19;20027;-81
2022/11/13 10:11:32;;;;;;;5.85;3.55;;;;;;;10.60;100.00;100495.00;12258067;19;20017;-80
2022/11/13 10:16:01;;;;;;;6.65;3.50;;;;;;;10.76;100.00;100489.91;12198713;19;20014;-82
2022/11/13 10:20:34;;;;;;;7.35;3.35;;;;;;;10.85;100.00;100492.06;12213280;19;21394;-82
2022/11/13 10:25:05;;;;;;;4.70;3.20;;;;;;;11.03;100.00;100482.06;12187660;19;20056;-81
2022/11/13 10:29:28;;;;;;;4.25;2.63;;;;;;;11.20;100.00;100473.94;12210900;19;20014;-82
2022/11/13 10:33:52;;;;;;;6.13;2.83;;;;;;;11.36;100.00;100468.56;12185514;19;20660;-81
2022/11/13 10:38:25;;;;;;;6.22;3.30;;;;;;;11.48;100.00;100449.25;12217581;19;20012;-82
2022/11/13 10:42:45;;;;;;;5.43;2.80;;;;;;;11.61;100.00;100440.72;12197409;19;20031;-81
2022/11/13 10:47:19;;;;;;;4.22;2.70;;;;;;;11.81;100.00;100428.47;12211056;19;20038;-82
2022/11/13 10:52:01;;;;;;;5.32;2.75;;;;;;;11.90;100.00;100415.97;12198601;19;20016;-81
2022/11/13 10:56:28;;;;;;;5.72;2.80;;;;;;;11.95;97.13;100391.22;12222263;19;20031;-81
2022/11/13 11:00:48;;;;;;;7.05;4.13;;;;;;;12.07;99.26;100383.72;12202693;19;20035;-82
2022/11/13 11:05:18;;;;;;;7.03;3.47;;;;;;;12.17;97.42;100377.56;12224794;19;20010;-84
2022/11/13 11:09:41;;;;;;;5.40;3.50;;;;;;;12.31;99.40;100376.19;12204055;19;20411;-83
2022/11/13 11:14:32;;;;;;;5.13;2.95;;;;;;;12.43;96.78;100384.44;12222827;19;20027;-83
2022/11/13 11:18:59;;;;;;;4.05;2.35;;;;;;;12.58;95.83;100371.94;12244644;19;20031;-83
2022/11/13 11:23:43;;;;;;;6.10;3.33;;;;;;;12.70;93.74;100370.81;12221025;19;20017;-84
2022/11/13 11:28:39;;;;;;;7.25;2.95;;;;;;;12.87;90.60;100376.34;12202329;19;20516;-84
2022/11/13 11:33:16;;;;;;;5.22;2.83;;;;;;;13.02;90.04;100353.59;12201436;19;20023;-84
2022/11/13 11:37:50;;;;;;;4.55;2.72;;;;;;;13.21;90.06;100355.03;12221261;19;20065;-84
2022/11/13 11:42:38;;;;;;;5.13;3.08;;;;;;;13.48;88.40;100359.03;12226578;19;20056;-84
2022/11/13 11:46:58;;;;;;;6.50;2.95;;;;;;;13.83;88.34;100328.16;12225422;19;20027;-84
2022/11/13 12:01:02;;;;;;;5.28;3.22;;;;;;;15.01;79.88;100319.06;12229055;19;20402;-85
2022/11/13 12:05:28;;;;;;;4.72;2.72;;;;;;;15.40;76.04;100314.03;12229501;19;20039;-83
2022/11/13 12:09:55;;;;;;;4.22;3.15;;;;;;;15.69;73.53;100320.03;12212498;19;20013;-82
2022/11/13 12:14:25;;;;;;;4.47;2.97;;;;;;;15.91;67.78;100297.63;12225117;19;20015;-82
2022/11/13 12:19:28;;;;;;;5.32;3.25;;;;;;;16.25;68.35;100288.78;12201464;19;20013;-83
2022/11/13 12:24:13;;;;;;;5.95;3.53;;;;;;;16.49;65.84;100279.91;12196530;19;20031;-83
2022/11/13 12:28:55;;;;;;;5.30;2.88;;;;;;;16.83;66.13;100275.47;12222731;19;20035;-83
2022/11/13 12:33:25;;;;;;;5.10;2.95;;;;;;;17.00;65.42;100289.09;12195967;19;20013;-82
2022/11/13 12:44:50;;;;;;;4.80;3.08;;;;;;;17.45;63.73;100266.97;12105759;19;2004494;-83
2022/11/13 12:49:28;;;;;;;4.95;3.20;;;;;;;16.78;63.89;100250.44;12189689;19;20495;-82
2022/11/13 12:53:50;;;;;;;4.78;3.15;;;;;;;16.29;65.80;100250.13;12194404;19;20034;-82
2022/11/13 12:58:27;;;;;;;6.43;3.30;;;;;;;15.87;65.83;100243.69;12214240;19;20108;-82
2022/11/13 13:02:58;;;;;;;5.03;3.40;;;;;;;15.56;66.37;100239.13;12194350;19;20256;-82
2022/11/13 13:07:56;;;;;;;4.32;2.60;;;;;;;15.31;64.75;100226.78;12220579;19;20024;-82
2022/11/13 13:12:39;;;;;;;7.50;3.30;;;;;;;15.18;65.39;100205.09;12193938;19;20578;-82
2022/11/13 13:17:17;;;;;;;4.88;2.90;;;;;;;14.84;64.47;100194.34;12217409;19;20071;-82
2022/11/13 13:21:43;;;;;;;6.25;3.85;;;;;;;14.62;66.18;100185.38;12191780;19;20026;-82
2022/11/13 13:26:13;;;;;;;8.80;4.95;;;;;;;14.40;68.20;100191.03;12202452;19;20019;-83
2022/11/13 13:31:00;;;;;;;12.15;5.72;;;;;;;14.14;69.48;100180.53;12196034;19;20012;-81
2022/11/13 13:35:37;;;;;;;6.57;4.28;;;;;;;14.04;70.58;100186.00;12216667;19;20021;-81
2022/11/13 13:40:18;;;;;;;9.18;5.07;;;;;;;13.89;70.93;100172.00;12195475;19;20027;-82
2022/11/13 13:44:57;;;;;;;8.25;5.03;;;;;;;13.80;70.67;100168.03;12217059;19;20037;-82
2022/11/13 13:49:21;;;;;;;8.32;4.47;;;;;;;13.76;71.00;100172.44;12116718;19;2004342;-83
2022/11/13 13:53:41;;;;;;;5.90;3.65;;;;;;;13.72;71.35;100176.84;12215979;19;20017;-83
2022/11/13 13:58:07;;;;;;;5.57;3.70;;;;;;;13.69;70.90;100169.88;12190509;19;20034;-83
2022/11/13 14:02:27;;;;;;;6.93;3.80;;;;;;;13.71;71.19;100151.06;12213312;19;20107;-82
2022/11/13 14:06:53;;;;;;;5.70;3.42;;;;;;;13.73;71.62;100142.50;12192400;19;20031;-83
2022/11/13 14:11:25;;;;;;;8.68;4.10;;;;;;;13.75;72.94;100148.63;12212988;19;20009;-82
2022/11/13 14:15:46;;;;;;;5.88;3.72;;;;;;;13.72;73.31;100143.63;12194835;19;20021;-82
2022/11/13 14:20:11;;;;;;;5.47;3.35;;;;;;;13.68;74.27;100133.06;12214443;19;20034;-82
2022/11/13 14:24:35;;;;;;;5.50;3.53;;;;;;;13.62;75.07;100119.41;12187004;19;20035;-83
2022/11/13 14:28:58;;;;;;;8.38;3.22;;;;;;;13.55;75.78;100111.31;12213068;19;20414;-82
2022/11/13 14:33:23;;;;;;;6.50;3.80;;;;;;;13.48;76.59;100107.94;12192545;19;20046;-82
2022/11/13 14:37:44;;;;;;;9.00;3.60;;;;;;;13.40;78.01;100108.41;12214192;19;20009;-83
2022/11/13 14:42:05;;;;;;;7.38;3.78;;;;;;;13.36;79.19;100093.44;12191382;19;20037;-82
2022/11/13 14:46:35;;;;;;;6.28;3.58;;;;;;;13.28;80.08;100097.50;12212041;19;20013;-82
2022/11/13 14:51:00;;;;;;;5.38;3.70;;;;;;;13.19;80.66;100093.50;12191590;19;20422;-82
2022/11/13 14:55:24;;;;;;;9.32;4.18;;;;;;;13.10;81.80;100093.13;12214803;19;20038;-82
2022/11/13 14:59:45;;;;;;;30.40;12.93;;;;;;;12.99;83.01;100077.50;12187554;19;20031;-82
2022/11/13 15:04:05;;;;;;;10.30;5.70;;;;;;;12.85;84.54;100077.06;12207637;19;20094;-82
2022/11/13 15:08:29;;;;;;;8.52;4.40;;;;;;;12.70;85.53;100069.44;12219040;19;20038;-82
2022/11/13 15:12:51;;;;;;;7.32;4.55;;;;;;;12.53;86.93;100071.41;12221590;19;20027;-83
2022/11/13 15:17:16;;;;;;;7.22;4.22;;;;;;;12.41;87.47;100067.94;12268941;19;20056;-82
2022/11/13 15:21:37;;;;;;;9.45;4.75;;;;;;;12.23;88.46;100067.13;12202302;19;20104;-83
2022/11/13 15:25:59;;;;;;;6.30;3.92;;;;;;;12.06;89.58;100067.16;12233918;19;20018;-83
2022/11/13 15:30:20;;;;;;;7.47;4.38;;;;;;;11.86;90.62;100067.66;12212834;19;20017;-82
2022/11/13 15:34:41;;;;;;;5.55;3.70;;;;;;;11.63;91.55;100057.63;12229217;19;20013;-83
2022/11/13 15:39:02;;;;;;;7.43;3.65;;;;;;;11.43;92.65;100061.97;12212578;19;20029;-82
2022/11/13 15:43:26;;;;;;;6.30;3.60;;;;;;;11.21;93.77;100054.41;12231710;19;20028;-82
2022/11/13 15:47:47;;;;;;;9.65;5.95;;;;;;;10.98;95.22;100043.50;12208745;19;20090;-81
2022/11/13 15:52:08;;;;;;;10.23;4.47;;;;;;;10.77;96.03;100056.91;12220756;19;20017;-81
2022/11/13 15:56:29;;;;;;;7.78;4.38;;;;;;;10.58;96.88;100058.13;12229913;19;20020;-82
2022/11/13 16:00:49;;;;;;;7.03;4.55;;;;;;;10.39;97.34;100057.47;12201502;19;20063;-81
2022/11/13 16:05:10;;;;;;;6.47;3.50;;;;;;;10.21;98.23;100059.25;12224536;19;20024;-81
2022/11/13 16:09:30;;;;;;;10.68;5.10;;;;;;;10.04;99.21;100055.56;12200863;19;20082;-81
2022/11/13 16:13:51;;;;;;;8.18;4.05;;;;;;;9.84;100.00;100044.91;12219461;19;20039;-81
2022/11/13 16:18:22;;;;;;;6.03;4.03;;;;;;;9.67;100.00;100039.31;12203014;19;20042;-81
2022/11/13 16:22:44;;;;;;;6.55;3.65;;;;;;;9.51;100.00;100037.22;12219113;19;20056;-80
2022/11/13 16:27:05;;;;;;;6.95;3.75;;;;;;;9.36;100.00;100045.94;12202426;19;20470;-81
2022/11/13 16:31:25;;;;;;;7.35;4.47;;;;;;;9.19;100.00;100043.06;12220894;19;20023;-83
2022/11/13 16:35:47;;;;;;;7.18;4.05;;;;;;;9.07;100.00;100047.66;12195689;19;20035;-81
2022/11/13 16:40:21;;;;;;;6.80;3.55;;;;;;;8.96;100.00;100042.97;12224470;19;20516;-80
2022/11/13 16:44:42;;;;;;;6.40;3.92;;;;;;;8.85;100.00;100042.69;12223846;19;20035;-81
2022/11/13 16:49:03;;;;;;;7.32;4.05;;;;;;;8.77;100.00;100050.41;12185613;19;20022;-81
2022/11/13 16:53:23;;;;;;;12.02;4.40;;;;;;;8.69;100.00;100042.50;12220693;19;20043;-81
2022/11/13 16:57:43;;;;;;;7.78;4.75;;;;;;;8.61;100.00;100040.91;12198608;19;20021;-82
2022/11/13 17:02:15;;;;;;;7.88;4.47;;;;;;;8.55;100.00;100034.44;12219290;19;20017;-81
2022/11/13 17:06:35;;;;;;;8.18;5.15;;;;;;;8.51;100.00;100021.41;12203090;19;20042;-81
2022/11/13 17:10:57;;;;;;;10.18;4.53;;;;;;;8.46;100.00;100021.25;12220680;19;20035;-81
2022/11/13 17:15:20;;;;;;;10.07;5.55;;;;;;;8.40;100.00;100034.00;12198222;19;20484;-82
2022/11/13 17:19:43;;;;;;;10.82;4.65;;;;;;;8.31;100.00;100019.72;12219926;19;20388;-82
2022/11/13 17:24:03;;;;;;;7.18;4.53;;;;;;;8.26;100.00;100021.47;12197090;19;20027;-81
2022/11/13 17:28:24;;;;;;;8.35;5.32;;;;;;;8.20;100.00;100024.03;12220077;19;20013;-81
2022/11/13 17:32:43;;;;;;;10.32;4.97;;;;;;;8.18;100.00;100025.38;12215530;19;20029;-81
2022/11/13 17:37:04;;;;;;;8.48;4.50;;;;;;;8.13;100.00;100023.28;12227643;19;20013;-81
2022/11/13 17:41:24;;;;;;;8.15;4.22;;;;;;;8.08;100.00;100025.88;12223596;19;20020;-82
2022/11/13 17:45:50;;;;;;;7.82;4.57;;;;;;;8.05;100.00;100022.75;12196468;19;20391;-81
2022/11/13 17:50:10;;;;;;;7.30;4.15;;;;;;;7.99;100.00;100022.59;12220412;19;20043;-81
2022/11/13 17:54:31;;;;;;;8.00;4.85;;;;;;;7.92;100.00;100018.25;12197583;19;20023;-82
2022/11/13 17:58:55;;;;;;;7.72;4.40;;;;;;;7.84;100.00;100007.56;12222255;19;20088;-81
2022/11/13 18:03:15;;;;;;;9.10;4.90;;;;;;;7.75;100.00;100005.13;12190195;19;20021;-81
2022/11/13 18:07:39;;;;;;;10.27;4.95;;;;;;;7.71;100.00;100003.06;12213280;19;20490;-81
2022/11/13 18:11:59;;;;;;;7.78;4.22;;;;;;;7.68;100.00;99998.88;12196923;19;20024;-81
2022/11/13 18:16:26;;;;;;;10.10;5.82;;;;;;;7.61;100.00;100002.75;12219745;19;20027;-81
2022/11/13 18:20:46;;;;;;;12.65;6.70;;;;;;;7.49;100.00;100021.81;12198583;19;20013;-81
2022/11/13 18:25:08;;;;;;;11.70;7.35;;;;;;;7.41;100.00;100011.16;12237177;19;20005;-81
2022/11/13 18:29:28;;;;;;;12.63;6.43;;;;;;;7.35;100.00;100001.94;12272345;19;20013;-81
2022/11/13 18:33:48;;;;;;;11.85;6.15;;;;;;;7.31;100.00;99995.19;12238071;19;20018;-83
2022/11/13 18:38:09;;;;;;;49.30;22.40;;;;;;;7.26;100.00;99990.41;12227151;19;20014;-82
2022/11/13 18:42:29;;;;;;;56.35;28.90;;;;;;;7.18;100.00;99989.84;12199928;19;20017;-82
2022/11/13 18:46:49;;;;;;;43.03;21.55;;;;;;;7.12;100.00;99986.09;12227043;19;20053;-82
2022/11/13 18:51:18;;;;;;;49.70;25.50;;;;;;;7.05;100.00;99974.34;12203510;19;20038;-82
2022/11/13 18:55:38;;;;;;;35.85;18.83;;;;;;;6.99;100.00;99970.59;12225835;19;20062;-83
2022/11/13 18:59:58;;;;;;;28.48;15.32;;;;;;;6.96;100.00;99971.06;12211682;19;20014;-83
2022/11/13 19:04:18;;;;;;;20.13;12.60;;;;;;;6.93;100.00;99966.00;12228422;19;20010;-84
2022/11/13 19:08:44;;;;;;;19.58;10.38;;;;;;;6.92;100.00;99949.78;12234834;19;20024;-83
2022/11/13 19:13:05;;;;;;;19.08;10.57;;;;;;;6.93;100.00;99941.34;12200514;19;20034;-83
2022/11/13 19:17:25;;;;;;;18.13;9.57;;;;;;;6.94;100.00;99931.25;12233395;19;20028;-83
2022/11/13 19:21:45;;;;;;;20.33;10.32;;;;;;;6.94;100.00;99923.84;12208462;19;20022;-82
2022/11/13 19:26:07;;;;;;;19.58;11.25;;;;;;;6.92;100.00;99933.34;12233957;19;20035;-82
2022/11/13 19:30:27;;;;;;;18.40;11.10;;;;;;;6.90;100.00;99938.19;12211968;19;20006;-83
2022/11/13 19:34:47;;;;;;;19.95;11.50;;;;;;;6.81;100.00;99933.03;12229470;19;20112;-83
2022/11/13 19:39:09;;;;;;;18.90;9.65;;;;;;;6.82;100.00;99934.69;12210138;19;20531;-83
2022/11/13 19:43:31;;;;;;;17.08;10.05;;;;;;;6.79;100.00;99934.31;12229423;19;20017;-83
2022/11/13 19:47:51;;;;;;;18.15;10.38;;;;;;;6.75;100.00;99936.66;12213255;19;20147;-82
2022/11/13 19:52:12;;;;;;;17.67;9.55;;;;;;;6.70;100.00;99930.16;12228195;19;20079;-82
2022/11/13 19:56:32;;;;;;;16.55;9.23;;;;;;;6.69;100.00;99929.28;12242622;19;20023;-83
2022/11/13 20:00:52;;;;;;;16.27;9.18;;;;;;;6.69;100.00;99923.81;12210601;19;20048;-82
2022/11/13 20:05:12;;;;;;;14.90;8.88;;;;;;;6.69;100.00;99915.59;12226977;19;20034;-82
2022/11/13 20:09:32;;;;;;;12.55;6.65;;;;;;;6.70;100.00;99914.56;12207645;19;20013;-81
2022/11/13 20:13:54;;;;;;;11.30;6.93;;;;;;;6.75;100.00;99908.41;12273836;19;20077;-83